Time;durP1;ratioP1;P1;durP2;ratioP2;P2;SDS_P1;SDS_P2;PMS_P1;PMS_P2;Temp;Humidity;BMP_temperature;BMP_pressure;BME280_temperature;BME280_humidity;BME280_pressure;Samples;Min_cycle;Max_cycle;Signal;HPM_P1;HPM_P2
2023/04/18 00:00:56;;;;;;;19.43;13.33;;;;;;;;;;4987185;28;20208;-78
2023/04/18 00:03:21;;;;;;;23.93;13.97;;;;;;;;;;4990882;28;20247;-78
2023/04/18 00:05:47;;;;;;;24.13;13.70;;;;;;;;;;4989819;28;20188;-78
2023/04/18 00:08:12;;;;;;;18.97;12.23;;;;;;;;;;4988345;28;20180;-78
2023/04/18 00:10:37;;;;;;;22.57;13.27;;;;;;;;;;5004501;28;20187;-78
2023/04/18 00:13:03;;;;;;;17.30;12.40;;;;;;;;;;4989580;28;20212;-78
2023/04/18 00:15:29;;;;;;;20.60;13.10;;;;;;;;;;4985280;28;20654;-82
2023/04/18 00:17:55;;;;;;;21.63;12.90;;;;;;;;;;4991183;28;20184;-79
2023/04/18 00:20:20;;;;;;;20.07;12.13;;;;;;;;;;4990845;28;20633;-78
2023/04/18 00:22:46;;;;;;;18.40;12.60;;;;;;;;;;4978217;28;20232;-77
2023/04/18 00:25:11;;;;;;;19.03;11.93;;;;;;;;;;4977331;28;20203;-78
2023/04/18 00:27:37;;;;;;;18.63;11.77;;;;;;;;;;4975234;28;20662;-78
2023/04/18 00:30:02;;;;;;;18.87;11.63;;;;;;;;;;4974202;28;20279;-77
2023/04/18 00:32:27;;;;;;;17.93;11.80;;;;;;;;;;4972675;28;20204;-78
2023/04/18 00:34:53;;;;;;;17.60;11.90;;;;;;;;;;4990715;28;20192;-79
2023/04/18 00:37:18;;;;;;;16.77;10.53;;;;;;;;;;4974983;28;20741;-78
2023/04/18 00:39:43;;;;;;;16.67;10.87;;;;;;;;;;4975590;28;20183;-78
2023/04/18 00:42:08;;;;;;;14.50;10.23;;;;;;;;;;4976058;28;20200;-78
2023/04/18 00:44:34;;;;;;;17.47;10.77;;;;;;;;;;4975292;28;20165;-78
2023/04/18 00:46:59;;;;;;;18.33;10.70;;;;;;;;;;4991051;28;20717;-78
2023/04/18 00:49:24;;;;;;;16.67;10.33;;;;;;;;;;4974485;28;20180;-79
2023/04/18 00:51:49;;;;;;;18.63;11.10;;;;;;;;;;4989906;28;20623;-78
2023/04/18 00:54:16;;;;;;;18.03;10.90;;;;;;;;;;4976531;28;20207;-78
2023/04/18 00:56:42;;;;;;;14.77;9.83;;;;;;;;;;4975662;28;20187;-79
2023/04/18 00:59:08;;;;;;;13.60;10.23;;;;;;;;;;4976363;28;20173;-78
2023/04/18 01:01:33;;;;;;;15.00;9.40;;;;;;;;;;4972654;28;20685;-79
2023/04/18 01:03:58;;;;;;;14.53;10.00;;;;;;;;;;4975194;28;20187;-78
2023/04/18 01:06:24;;;;;;;17.97;10.10;;;;;;;;;;4971258;28;20275;-78
2023/04/18 01:08:50;;;;;;;12.17;9.07;;;;;;;;;;4989491;28;20642;-78
2023/04/18 01:11:15;;;;;;;15.13;9.83;;;;;;;;;;4989179;28;20223;-78
2023/04/18 01:13:40;;;;;;;15.00;9.57;;;;;;;;;;4970182;28;20223;-79
2023/04/18 01:16:05;;;;;;;14.03;9.83;;;;;;;;;;4989283;28;20183;-77
2023/04/18 01:18:31;;;;;;;18.43;10.07;;;;;;;;;;4983735;28;20185;-78
2023/04/18 01:20:58;;;;;;;14.00;8.90;;;;;;;;;;4975895;28;20646;-78
2023/04/18 01:23:24;;;;;;;13.60;9.13;;;;;;;;;;4990362;28;20187;-78
2023/04/18 01:25:49;;;;;;;15.07;9.40;;;;;;;;;;4974019;28;20168;-78
2023/04/18 01:28:15;;;;;;;17.60;9.27;;;;;;;;;;4973099;28;20191;-78
2023/04/18 01:30:40;;;;;;;12.33;8.73;;;;;;;;;;4972723;28;20184;-78
2023/04/18 01:33:05;;;;;;;16.63;10.67;;;;;;;;;;4974237;28;20258;-78
2023/04/18 01:35:31;;;;;;;15.77;9.30;;;;;;;;;;4973751;28;20239;-77
2023/04/18 01:37:57;;;;;;;14.63;9.33;;;;;;;;;;4974255;28;20614;-78
2023/04/18 01:40:23;;;;;;;15.87;9.67;;;;;;;;;;4972762;28;20176;-79
2023/04/18 01:42:48;;;;;;;15.30;9.43;;;;;;;;;;4984690;28;20200;-78
2023/04/18 01:45:14;;;;;;;14.43;8.77;;;;;;;;;;4969737;28;20191;-78
2023/04/18 01:47:39;;;;;;;16.10;10.00;;;;;;;;;;4974532;28;20582;-78
2023/04/18 01:50:05;;;;;;;13.63;8.13;;;;;;;;;;4972573;28;20271;-78
2023/04/18 01:52:30;;;;;;;13.77;9.40;;;;;;;;;;4973922;28;20555;-78
2023/04/18 01:54:55;;;;;;;11.80;8.03;;;;;;;;;;4988842;28;20167;-78
2023/04/18 01:57:21;;;;;;;12.13;8.63;;;;;;;;;;4972218;28;20172;-77
2023/04/18 01:59:46;;;;;;;15.37;9.43;;;;;;;;;;4970380;28;20177;-78
2023/04/18 02:02:11;;;;;;;15.10;8.90;;;;;;;;;;4988203;28;20185;-78
2023/04/18 02:04:36;;;;;;;13.87;8.90;;;;;;;;;;4974062;28;20180;-78
2023/04/18 02:07:01;;;;;;;13.27;7.87;;;;;;;;;;4988893;28;20182;-78
2023/04/18 02:09:27;;;;;;;13.00;7.90;;;;;;;;;;4972024;28;20313;-77
2023/04/18 02:11:55;;;;;;;8.93;6.60;;;;;;;;;;4973213;28;20212;-78
2023/04/18 02:14:20;;;;;;;11.67;7.80;;;;;;;;;;4987297;28;20204;-79
2023/04/18 02:16:48;;;;;;;10.40;7.40;;;;;;;;;;4971880;28;20176;-78
2023/04/18 02:19:13;;;;;;;9.93;6.97;;;;;;;;;;4973423;28;20187;-78
2023/04/18 02:21:40;;;;;;;9.93;7.20;;;;;;;;;;4974896;28;20624;-79
2023/04/18 02:24:05;;;;;;;9.80;7.60;;;;;;;;;;4973805;28;20245;-79
2023/04/18 02:26:31;;;;;;;11.50;7.30;;;;;;;;;;4970467;28;20193;-79
2023/04/18 02:28:57;;;;;;;12.40;7.10;;;;;;;;;;4973093;28;20193;-78
2023/04/18 02:31:22;;;;;;;10.73;7.40;;;;;;;;;;4972349;28;20558;-78
2023/04/18 02:33:47;;;;;;;9.13;7.17;;;;;;;;;;4973352;28;20518;-79
2023/04/18 02:36:13;;;;;;;9.83;6.73;;;;;;;;;;4989475;28;20237;-78
2023/04/18 02:38:38;;;;;;;10.67;7.17;;;;;;;;;;4988638;28;20177;-79
2023/04/18 02:41:03;;;;;;;8.53;6.93;;;;;;;;;;4971809;28;20201;-80
2023/04/18 02:43:29;;;;;;;10.63;7.10;;;;;;;;;;4985284;28;20717;-80
2023/04/18 02:45:54;;;;;;;8.90;7.00;;;;;;;;;;4972903;28;20213;-79
2023/04/18 02:48:19;;;;;;;9.53;6.27;;;;;;;;;;4971795;28;20267;-80
2023/04/18 02:50:45;;;;;;;9.40;6.67;;;;;;;;;;4972449;28;20590;-79
2023/04/18 02:53:10;;;;;;;10.07;6.40;;;;;;;;;;4972001;28;20679;-79
2023/04/18 02:55:35;;;;;;;9.43;5.87;;;;;;;;;;4972683;28;20176;-78
2023/04/18 02:58:01;;;;;;;8.97;6.70;;;;;;;;;;4974916;28;20184;-79
2023/04/18 03:00:26;;;;;;;10.90;6.97;;;;;;;;;;4986572;28;20185;-77
2023/04/18 03:02:51;;;;;;;13.93;7.10;;;;;;;;;;4972039;28;20219;-77
2023/04/18 03:05:17;;;;;;;11.00;6.93;;;;;;;;;;4972975;28;20180;-77
2023/04/18 03:07:42;;;;;;;8.53;6.17;;;;;;;;;;4971583;28;20176;-77
2023/04/18 03:10:07;;;;;;;13.40;6.80;;;;;;;;;;4972964;28;20180;-77
2023/04/18 03:12:33;;;;;;;10.57;7.53;;;;;;;;;;4972487;28;20211;-77
2023/04/18 03:14:59;;;;;;;10.10;6.90;;;;;;;;;;4970719;28;20229;-78
2023/04/18 03:17:24;;;;;;;15.33;6.93;;;;;;;;;;4972364;28;20223;-77
2023/04/18 03:19:49;;;;;;;9.77;6.00;;;;;;;;;;4972470;28;20208;-77
2023/04/18 03:22:14;;;;;;;13.13;6.43;;;;;;;;;;4969926;28;20742;-77
2023/04/18 03:24:40;;;;;;;14.27;6.53;;;;;;;;;;4968793;28;20171;-77
2023/04/18 03:27:05;;;;;;;11.97;6.83;;;;;;;;;;4985470;28;20207;-77
2023/04/18 03:29:30;;;;;;;9.57;6.33;;;;;;;;;;4975740;28;20227;-77
2023/04/18 03:31:55;;;;;;;12.53;7.33;;;;;;;;;;4990517;28;20291;-77
2023/04/18 03:34:20;;;;;;;10.83;6.60;;;;;;;;;;4992339;28;20208;-78
2023/04/18 03:36:46;;;;;;;12.03;6.83;;;;;;;;;;4977046;28;20246;-77
2023/04/18 03:39:11;;;;;;;9.90;6.37;;;;;;;;;;4976514;28;20729;-77
2023/04/18 03:41:36;;;;;;;12.70;7.10;;;;;;;;;;4974442;28;20294;-78
2023/04/18 03:44:01;;;;;;;9.77;6.70;;;;;;;;;;4973483;28;20662;-77
2023/04/18 03:46:27;;;;;;;11.20;7.30;;;;;;;;;;4974732;28;20176;-77
2023/04/18 03:48:52;;;;;;;12.00;7.43;;;;;;;;;;4975622;28;20176;-77
2023/04/18 03:51:17;;;;;;;13.50;8.17;;;;;;;;;;4975928;28;20207;-77
2023/04/18 03:53:42;;;;;;;10.10;7.60;;;;;;;;;;4973850;28;20212;-77
2023/04/18 03:56:08;;;;;;;11.93;7.60;;;;;;;;;;4990061;28;20272;-77
2023/04/18 03:58:33;;;;;;;9.80;7.30;;;;;;;;;;4975230;28;20173;-77
2023/04/18 04:00:59;;;;;;;13.20;7.40;;;;;;;;;;4973426;28;20740;-77
2023/04/18 04:03:26;;;;;;;10.57;6.83;;;;;;;;;;4974472;28;20192;-77
2023/04/18 04:05:52;;;;;;;13.17;7.63;;;;;;;;;;4974683;28;20181;-77
2023/04/18 04:08:17;;;;;;;13.20;7.93;;;;;;;;;;4975971;28;20196;-77
2023/04/18 04:10:42;;;;;;;10.60;8.20;;;;;;;;;;4974505;28;20184;-77
2023/04/18 04:13:08;;;;;;;13.00;8.47;;;;;;;;;;4972959;28;20219;-77
2023/04/18 04:15:35;;;;;;;12.23;8.07;;;;;;;;;;4974072;28;20177;-77
2023/04/18 04:18:00;;;;;;;12.07;7.53;;;;;;;;;;4974604;28;20255;-77
2023/04/18 04:20:25;;;;;;;12.37;7.67;;;;;;;;;;4975471;28;20207;-77
2023/04/18 04:22:51;;;;;;;11.07;7.93;;;;;;;;;;4976216;28;20590;-77
2023/04/18 04:25:16;;;;;;;12.53;8.30;;;;;;;;;;4971930;28;20184;-77
2023/04/18 04:27:42;;;;;;;13.57;7.70;;;;;;;;;;4971664;28;20181;-77
2023/04/18 04:30:07;;;;;;;12.20;8.00;;;;;;;;;;4975515;28;20279;-77
2023/04/18 04:32:32;;;;;;;12.20;8.00;;;;;;;;;;4989159;28;20410;-77
2023/04/18 04:34:58;;;;;;;12.07;7.77;;;;;;;;;;4975118;28;20777;-80
2023/04/18 04:37:25;;;;;;;13.00;8.50;;;;;;;;;;4974920;28;20215;-77
2023/04/18 04:39:51;;;;;;;19.23;8.97;;;;;;;;;;4971500;28;20176;-77
2023/04/18 04:42:16;;;;;;;12.00;7.50;;;;;;;;;;4972638;28;20254;-79
2023/04/18 04:44:41;;;;;;;14.10;8.97;;;;;;;;;;4976515;28;20211;-78
2023/04/18 04:47:06;;;;;;;13.67;8.70;;;;;;;;;;4973197;28;20184;-78
2023/04/18 04:49:32;;;;;;;10.83;8.37;;;;;;;;;;4990259;28;20179;-78
2023/04/18 04:51:57;;;;;;;13.63;8.33;;;;;;;;;;4990912;28;20207;-77
2023/04/18 04:54:22;;;;;;;11.17;8.13;;;;;;;;;;4968467;28;20208;-78
2023/04/18 04:56:47;;;;;;;11.23;7.97;;;;;;;;;;4990894;28;20177;-78
2023/04/18 04:59:12;;;;;;;10.63;8.00;;;;;;;;;;4975058;28;20265;-78
2023/04/18 05:01:38;;;;;;;11.97;7.07;;;;;;;;;;4973995;28;20760;-78
2023/04/18 05:04:03;;;;;;;10.93;8.10;;;;;;;;;;4973275;28;20236;-78
2023/04/18 05:06:28;;;;;;;17.13;8.57;;;;;;;;;;4991395;28;20180;-77
2023/04/18 05:08:55;;;;;;;11.93;7.93;;;;;;;;;;4974437;28;20260;-78
2023/04/18 05:11:20;;;;;;;15.30;9.00;;;;;;;;;;4978373;28;20216;-78
2023/04/18 05:13:45;;;;;;;16.83;8.93;;;;;;;;;;4969476;28;20200;-77
2023/04/18 05:16:11;;;;;;;10.53;7.93;;;;;;;;;;4967414;28;20191;-78
2023/04/18 05:18:38;;;;;;;15.80;8.73;;;;;;;;;;4976265;28;20546;-77
2023/04/18 05:21:03;;;;;;;13.50;8.33;;;;;;;;;;4975182;28;20203;-77
2023/04/18 05:23:29;;;;;;;12.47;7.67;;;;;;;;;;4974816;28;20172;-78
2023/04/18 05:25:54;;;;;;;15.43;10.37;;;;;;;;;;4989029;28;20184;-77
2023/04/18 05:28:21;;;;;;;13.37;8.80;;;;;;;;;;4972217;28;20207;-78
2023/04/18 05:30:47;;;;;;;13.43;8.77;;;;;;;;;;4976780;28;20180;-78
2023/04/18 05:33:12;;;;;;;13.03;8.87;;;;;;;;;;4981250;28;20208;-78
2023/04/18 05:35:37;;;;;;;12.33;8.67;;;;;;;;;;4982807;28;20615;-77
2023/04/18 05:38:02;;;;;;;12.70;8.47;;;;;;;;;;4982360;28;20662;-78
2023/04/18 05:40:28;;;;;;;16.27;8.10;;;;;;;;;;4977785;28;20192;-78
2023/04/18 05:42:54;;;;;;;12.53;7.97;;;;;;;;;;4978662;28;20192;-77
2023/04/18 05:45:19;;;;;;;13.67;8.83;;;;;;;;;;4978677;28;20176;-78
2023/04/18 05:47:44;;;;;;;15.20;8.60;;;;;;;;;;4975155;28;20187;-78
2023/04/18 05:50:10;;;;;;;12.27;7.83;;;;;;;;;;4989083;28;20780;-78
2023/04/18 05:52:36;;;;;;;15.53;8.57;;;;;;;;;;4975553;28;20200;-78
2023/04/18 05:55:01;;;;;;;12.17;8.47;;;;;;;;;;4975031;28;20237;-79
2023/04/18 05:57:27;;;;;;;11.07;8.33;;;;;;;;;;4975898;28;20609;-78
2023/04/18 05:59:52;;;;;;;14.43;9.27;;;;;;;;;;4973257;28;20182;-78
2023/04/18 06:02:17;;;;;;;13.17;8.43;;;;;;;;;;4968406;28;20622;-78
2023/04/18 06:04:42;;;;;;;12.63;9.13;;;;;;;;;;4970426;28;20231;-78
2023/04/18 06:07:08;;;;;;;13.37;9.10;;;;;;;;;;4971995;28;20643;-78
2023/04/18 06:09:33;;;;;;;16.40;8.37;;;;;;;;;;4975620;28;20180;-78
2023/04/18 06:11:58;;;;;;;11.13;7.80;;;;;;;;;;4978113;28;20218;-78
2023/04/18 06:14:24;;;;;;;13.97;8.87;;;;;;;;;;4989930;28;20211;-78
2023/04/18 06:16:50;;;;;;;12.43;8.93;;;;;;;;;;4973283;28;20273;-78
2023/04/18 06:19:15;;;;;;;15.37;8.40;;;;;;;;;;4974664;28;20186;-78
2023/04/18 06:21:41;;;;;;;13.33;9.30;;;;;;;;;;4974500;28;20200;-78
2023/04/18 06:24:07;;;;;;;16.00;9.00;;;;;;;;;;4968394;28;20258;-78
2023/04/18 06:26:32;;;;;;;13.97;8.83;;;;;;;;;;4972021;28;20609;-78
2023/04/18 06:28:57;;;;;;;17.20;8.67;;;;;;;;;;4973043;28;20280;-78
2023/04/18 06:31:22;;;;;;;13.50;8.67;;;;;;;;;;4973398;28;20682;-78
2023/04/18 06:33:47;;;;;;;13.30;8.43;;;;;;;;;;4972165;28;20215;-78
2023/04/18 06:36:13;;;;;;;12.63;8.40;;;;;;;;;;4972844;28;20176;-79
2023/04/18 06:38:38;;;;;;;13.83;7.77;;;;;;;;;;4973082;28;20180;-86
2023/04/18 06:41:03;;;;;;;12.83;8.60;;;;;;;;;;4973158;28;20200;-80
2023/04/18 06:43:28;;;;;;;11.17;8.40;;;;;;;;;;4987657;28;20192;-79
2023/04/18 06:45:55;;;;;;;11.10;8.00;;;;;;;;;;4975659;28;20176;-79
2023/04/18 06:48:20;;;;;;;12.70;8.53;;;;;;;;;;4976631;28;20168;-79
2023/04/18 06:50:45;;;;;;;13.80;8.40;;;;;;;;;;4977503;28;20179;-80
2023/04/18 06:53:11;;;;;;;13.97;8.60;;;;;;;;;;4978211;28;20204;-80
2023/04/18 06:55:36;;;;;;;10.93;8.07;;;;;;;;;;4979196;28;20230;-80
2023/04/18 06:58:01;;;;;;;12.47;8.03;;;;;;;;;;4978220;28;20176;-80
2023/04/18 07:00:26;;;;;;;12.67;7.90;;;;;;;;;;4971999;28;20172;-80
2023/04/18 07:02:52;;;;;;;14.50;8.27;;;;;;;;;;4993493;28;20196;-80
2023/04/18 07:05:17;;;;;;;10.43;7.30;;;;;;;;;;4977399;28;20177;-80
2023/04/18 07:07:42;;;;;;;10.43;7.87;;;;;;;;;;4978890;28;20259;-81
2023/04/18 07:10:08;;;;;;;11.20;7.47;;;;;;;;;;4979419;28;20643;-80
2023/04/18 07:12:33;;;;;;;10.73;7.23;;;;;;;;;;4980302;28;20188;-82
2023/04/18 07:14:59;;;;;;;11.90;8.40;;;;;;;;;;4994577;28;20705;-79
2023/04/18 07:17:24;;;;;;;10.40;7.80;;;;;;;;;;4978356;28;20245;-79
2023/04/18 07:19:49;;;;;;;10.60;8.07;;;;;;;;;;4978184;28;20172;-79
2023/04/18 07:22:14;;;;;;;12.03;7.53;;;;;;;;;;4975739;28;20197;-80
2023/04/18 07:24:40;;;;;;;10.87;8.00;;;;;;;;;;4973204;28;20643;-80
2023/04/18 07:27:05;;;;;;;11.70;7.53;;;;;;;;;;4982710;28;20267;-80
2023/04/18 07:29:31;;;;;;;13.90;7.47;;;;;;;;;;4991002;28;20230;-80
2023/04/18 07:31:56;;;;;;;11.03;6.70;;;;;;;;;;4993276;28;20251;-80
2023/04/18 07:34:22;;;;;;;10.67;6.53;;;;;;;;;;4979020;28;20232;-80
2023/04/18 07:36:47;;;;;;;9.50;6.03;;;;;;;;;;4994864;28;20170;-81
2023/04/18 07:39:12;;;;;;;8.97;6.40;;;;;;;;;;4978182;28;20601;-79
2023/04/18 07:41:37;;;;;;;10.10;6.80;;;;;;;;;;4976130;28;20234;-81
2023/04/18 07:44:03;;;;;;;13.17;7.73;;;;;;;;;;4977186;28;20180;-82
2023/04/18 07:46:31;;;;;;;11.93;7.33;;;;;;;;;;4978134;28;20180;-81
2023/04/18 07:48:56;;;;;;;10.03;6.47;;;;;;;;;;4976525;28;20184;-81
2023/04/18 07:51:24;;;;;;;9.73;6.53;;;;;;;;;;4977133;28;20250;-80
2023/04/18 07:53:49;;;;;;;9.80;6.60;;;;;;;;;;4992788;28;20643;-79
2023/04/18 07:56:14;;;;;;;12.17;7.10;;;;;;;;;;4970954;28;20176;-80
2023/04/18 07:58:40;;;;;;;12.27;6.17;;;;;;;;;;4977824;28;20304;-79
2023/04/18 08:01:06;;;;;;;9.33;6.87;;;;;;;;;;4977242;28;20271;-80
2023/04/18 08:03:33;;;;;;;8.57;5.87;;;;;;;;;;4977783;28;20238;-80
2023/04/18 08:05:59;;;;;;;10.40;7.00;;;;;;;;;;4976778;28;20173;-81
2023/04/18 08:08:24;;;;;;;12.80;6.47;;;;;;;;;;4974948;28;20657;-80
2023/04/18 08:10:49;;;;;;;10.73;5.93;;;;;;;;;;4976924;28;20271;-79
2023/04/18 08:13:14;;;;;;;9.17;6.67;;;;;;;;;;4978714;28;20712;-80
2023/04/18 08:15:41;;;;;;;8.97;5.53;;;;;;;;;;4990656;28;20199;-80
2023/04/18 08:18:06;;;;;;;9.10;6.03;;;;;;;;;;5009849;28;20272;-83
2023/04/18 08:20:33;;;;;;;10.83;6.30;;;;;;;;;;4989820;28;20591;-80
2023/04/18 08:22:58;;;;;;;7.97;6.03;;;;;;;;;;4980047;28;20200;-80
2023/04/18 08:25:23;;;;;;;9.02;5.95;;;;;;;;;;4978428;28;20164;-80
2023/04/18 08:27:48;;;;;;;8.73;5.50;;;;;;;;;;4981325;28;20180;-81
2023/04/18 08:30:14;;;;;;;7.70;5.53;;;;;;;;;;4973644;28;20280;-83
2023/04/18 08:32:39;;;;;;;6.47;4.85;;;;;;;;;;4964975;28;20235;-80
2023/04/18 08:35:04;;;;;;;8.77;5.65;;;;;;;;;;4974312;28;20295;-81
2023/04/18 08:37:34;;;;;;;7.18;5.78;;;;;;;;;;4976730;28;20220;-80
2023/04/18 08:39:59;;;;;;;8.63;5.28;;;;;;;;;;4992978;28;20207;-80
2023/04/18 08:42:24;;;;;;;7.70;5.00;;;;;;;;;;4977675;28;20192;-79
2023/04/18 08:44:51;;;;;;;7.25;5.80;;;;;;;;;;4980163;28;20243;-80
2023/04/18 08:47:18;;;;;;;6.95;4.93;;;;;;;;;;4976400;28;20203;-80
2023/04/18 08:49:44;;;;;;;5.47;4.55;;;;;;;;;;4976323;28;20165;-81
2023/04/18 08:52:11;;;;;;;8.20;5.43;;;;;;;;;;4994768;28;20210;-80
2023/04/18 08:54:37;;;;;;;10.68;5.13;;;;;;;;;;4969947;28;20204;-80
2023/04/18 08:57:03;;;;;;;7.15;4.95;;;;;;;;;;4977669;28;20176;-84
2023/04/18 08:59:29;;;;;;;6.85;5.13;;;;;;;;;;4974025;28;20173;-80
2023/04/18 09:01:55;;;;;;;6.95;4.93;;;;;;;;;;4977846;28;20258;-80
2023/04/18 09:04:39;;;;;;;7.50;5.43;;;;;;;;;;4976250;28;20181;-80
2023/04/18 09:07:08;;;;;;;7.15;5.55;;;;;;;;;;4972817;28;20184;-80
2023/04/18 09:09:40;;;;;;;7.03;4.95;;;;;;;;;;4976973;28;20172;-82
2023/04/18 09:12:06;;;;;;;6.93;5.07;;;;;;;;;;4976411;28;20708;-83
2023/04/18 09:14:32;;;;;;;6.93;5.07;;;;;;;;;;4973721;28;20291;-81
2023/04/18 09:16:59;;;;;;;7.22;5.30;;;;;;;;;;4977425;28;20172;-80
2023/04/18 09:19:24;;;;;;;6.38;4.65;;;;;;;;;;4991837;28;20180;-79
2023/04/18 09:22:00;;;;;;;6.35;4.72;;;;;;;;;;4978403;28;20798;-81
2023/04/18 09:24:27;;;;;;;6.57;5.07;;;;;;;;;;4977310;28;20650;-79
2023/04/18 09:26:54;;;;;;;6.47;4.85;;;;;;;;;;4981471;28;20183;-79
2023/04/18 09:29:21;;;;;;;8.48;5.20;;;;;;;;;;4975907;28;20164;-79
2023/04/18 09:31:56;;;;;;;7.95;4.78;;;;;;;;;;4976374;28;20204;-78
2023/04/18 09:34:26;;;;;;;6.35;4.47;;;;;;;;;;4976437;28;20196;-79
2023/04/18 09:37:06;;;;;;;7.40;4.15;;;;;;;;;;4980381;28;20187;-79
2023/04/18 09:39:31;;;;;;;8.10;4.97;;;;;;;;;;4975452;28;20269;-79
2023/04/18 09:41:59;;;;;;;8.40;5.07;;;;;;;;;;4976449;28;20184;-79
2023/04/18 09:44:25;;;;;;;5.63;4.60;;;;;;;;;;4969400;28;20184;-83
2023/04/18 09:46:50;;;;;;;7.05;4.18;;;;;;;;;;4983561;28;20289;-79
2023/04/18 09:49:16;;;;;;;7.35;4.43;;;;;;;;;;4989334;28;20223;-78
2023/04/18 09:51:42;;;;;;;6.55;4.20;;;;;;;;;;4976297;28;20250;-80
2023/04/18 09:54:09;;;;;;;7.13;4.70;;;;;;;;;;4975437;28;20748;-79
2023/04/18 09:56:36;;;;;;;7.28;4.20;;;;;;;;;;4975082;28;20172;-81
2023/04/18 09:59:05;;;;;;;4.75;3.42;;;;;;;;;;4974526;28;20652;-80
2023/04/18 10:01:30;;;;;;;5.70;4.07;;;;;;;;;;4975939;28;20321;-81
2023/04/18 10:03:56;;;;;;;6.50;3.95;;;;;;;;;;4977257;28;20160;-80
2023/04/18 10:06:21;;;;;;;4.45;3.63;;;;;;;;;;4976371;28;20658;-80
2023/04/18 10:08:47;;;;;;;5.35;3.67;;;;;;;;;;4977548;28;20176;-80
2023/04/18 10:11:12;;;;;;;4.25;3.38;;;;;;;;;;4975008;28;20204;-81
2023/04/18 10:13:38;;;;;;;4.85;3.35;;;;;;;;;;4977190;28;20263;-81
2023/04/18 10:16:03;;;;;;;3.95;2.75;;;;;;;;;;4977290;28;20180;-81
2023/04/18 10:18:28;;;;;;;5.22;3.05;;;;;;;;;;4978289;28;20489;-79
2023/04/18 10:21:02;;;;;;;3.50;3.10;;;;;;;;;;4985424;28;20176;-80
2023/04/18 10:23:33;;;;;;;5.03;3.60;;;;;;;;;;4995126;28;20176;-80
2023/04/18 10:25:59;;;;;;;4.28;3.08;;;;;;;;;;4986396;28;20174;-80
2023/04/18 10:28:26;;;;;;;3.58;2.60;;;;;;;;;;5002911;28;20215;-80
2023/04/18 10:30:52;;;;;;;4.50;3.20;;;;;;;;;;4995431;28;20187;-80
2023/04/18 10:33:21;;;;;;;5.65;3.63;;;;;;;;;;4977810;28;20188;-80
2023/04/18 10:35:56;;;;;;;6.38;3.22;;;;;;;;;;4975602;28;20263;-81
2023/04/18 10:38:22;;;;;;;3.53;3.22;;;;;;;;;;4979679;28;20175;-78
2023/04/18 10:40:47;;;;;;;5.18;3.58;;;;;;;;;;4978329;28;20179;-79
2023/04/18 10:43:12;;;;;;;4.05;3.63;;;;;;;;;;4974687;28;20184;-80
2023/04/18 10:45:38;;;;;;;3.45;3.03;;;;;;;;;;4971829;28;20192;-80
2023/04/18 10:48:37;;;;;;;5.13;3.85;;;;;;;;;;4979569;28;20611;-80
2023/04/18 10:51:12;;;;;;;4.88;3.85;;;;;;;;;;4949028;28;20212;-79
2023/04/18 10:53:37;;;;;;;4.38;3.40;;;;;;;;;;4978113;28;20227;-79
2023/04/18 10:56:02;;;;;;;5.53;3.42;;;;;;;;;;4977652;28;20551;-81
2023/04/18 10:58:28;;;;;;;4.40;2.85;;;;;;;;;;4977083;28;20184;-80
2023/04/18 11:00:53;;;;;;;4.45;3.22;;;;;;;;;;4977518;28;20247;-79
2023/04/18 11:03:19;;;;;;;5.93;3.78;;;;;;;;;;4978847;28;20189;-79
2023/04/18 11:05:44;;;;;;;4.35;3.70;;;;;;;;;;4978034;28;20187;-79
2023/04/18 11:08:22;;;;;;;3.90;3.05;;;;;;;;;;4977209;28;20184;-77
2023/04/18 11:10:55;;;;;;;6.40;2.72;;;;;;;;;;4994844;28;20536;-80
2023/04/18 11:13:20;;;;;;;4.90;3.42;;;;;;;;;;4976775;28;20749;-79
2023/04/18 11:15:46;;;;;;;5.25;3.97;;;;;;;;;;4970700;28;20184;-79
2023/04/18 11:18:11;;;;;;;6.53;3.35;;;;;;;;;;4977628;28;20180;-79
2023/04/18 11:20:37;;;;;;;4.30;3.33;;;;;;;;;;4977793;28;20178;-78
2023/04/18 11:23:03;;;;;;;4.40;2.85;;;;;;;;;;4993688;28;20212;-80
2023/04/18 11:25:29;;;;;;;4.28;3.20;;;;;;;;;;4992723;28;20231;-79
2023/04/18 11:27:57;;;;;;;3.58;2.83;;;;;;;;;;4976041;28;20605;-78
2023/04/18 11:30:22;;;;;;;6.50;3.95;;;;;;;;;;4977033;28;20176;-77
2023/04/18 11:32:47;;;;;;;4.75;2.67;;;;;;;;;;4969179;28;20650;-79
2023/04/18 11:35:14;;;;;;;5.90;3.80;;;;;;;;;;4977862;28;20717;-79
2023/04/18 11:37:40;;;;;;;7.15;4.68;;;;;;;;;;4977442;28;20180;-79
2023/04/18 11:40:07;;;;;;;5.22;2.90;;;;;;;;;;4993401;28;20254;-79
2023/04/18 11:42:33;;;;;;;6.07;2.88;;;;;;;;;;4977590;28;20251;-80
2023/04/18 11:44:58;;;;;;;7.15;3.80;;;;;;;;;;4978303;28;20164;-79
2023/04/18 11:47:23;;;;;;;4.35;3.15;;;;;;;;;;4984476;28;20180;-78
2023/04/18 11:49:54;;;;;;;7.30;3.38;;;;;;;;;;4974835;28;20181;-78
2023/04/18 11:52:19;;;;;;;5.07;3.33;;;;;;;;;;4977960;28;20626;-82
2023/04/18 11:54:44;;;;;;;4.60;3.42;;;;;;;;;;4976780;28;20216;-80
2023/04/18 11:57:19;;;;;;;5.63;3.95;;;;;;;;;;4983153;28;20191;-79
2023/04/18 11:59:50;;;;;;;4.10;3.20;;;;;;;;;;4976753;28;20168;-78
2023/04/18 12:02:15;;;;;;;9.38;4.03;;;;;;;;;;4977490;28;20224;-80
2023/04/18 12:04:50;;;;;;;4.82;3.80;;;;;;;;;;4989146;28;20185;-79
2023/04/18 12:07:28;;;;;;;5.28;4.07;;;;;;;;;;4985576;28;20194;-80
2023/04/18 12:09:53;;;;;;;5.32;4.35;;;;;;;;;;5000594;28;20272;-80
2023/04/18 12:12:18;;;;;;;4.88;3.88;;;;;;;;;;4983388;28;20264;-79
2023/04/18 12:14:44;;;;;;;15.00;4.40;;;;;;;;;;4999750;28;20296;-79
2023/04/18 12:17:11;;;;;;;10.98;4.97;;;;;;;;;;4984128;28;20192;-79
2023/04/18 12:19:36;;;;;;;7.30;5.68;;;;;;;;;;4982938;28;20195;-78
2023/04/18 12:22:03;;;;;;;5.50;4.03;;;;;;;;;;4986510;28;20196;-79
2023/04/18 12:24:31;;;;;;;5.43;4.70;;;;;;;;;;4986192;28;20188;-78
2023/04/18 12:26:56;;;;;;;6.88;5.00;;;;;;;;;;4990196;28;20173;-80
2023/04/18 12:29:22;;;;;;;7.72;5.35;;;;;;;;;;4989873;28;20214;-79
2023/04/18 12:31:47;;;;;;;7.38;5.47;;;;;;;;;;4973260;28;20588;-79
2023/04/18 12:34:13;;;;;;;7.93;5.63;;;;;;;;;;4990481;28;20279;-80
2023/04/18 12:36:38;;;;;;;6.78;4.82;;;;;;;;;;4997675;28;20172;-81
2023/04/18 12:39:03;;;;;;;7.20;5.75;;;;;;;;;;4989515;28;20191;-78
2023/04/18 12:41:29;;;;;;;7.50;5.10;;;;;;;;;;4984748;28;20283;-80
2023/04/18 12:43:54;;;;;;;19.88;9.10;;;;;;;;;;4982541;28;20264;-78
2023/04/18 12:46:19;;;;;;;9.68;5.85;;;;;;;;;;4983548;28;20181;-78
2023/04/18 12:48:44;;;;;;;8.68;5.95;;;;;;;;;;4973919;28;20618;-78
2023/04/18 12:51:10;;;;;;;17.75;7.32;;;;;;;;;;4979289;28;20575;-79
2023/04/18 12:53:35;;;;;;;6.85;5.10;;;;;;;;;;4976398;28;20243;-80
2023/04/18 12:56:01;;;;;;;8.00;5.68;;;;;;;;;;4977997;28;20230;-79
2023/04/18 12:58:26;;;;;;;10.30;5.90;;;;;;;;;;4980580;28;20184;-79
2023/04/18 13:00:51;;;;;;;8.02;5.22;;;;;;;;;;4991275;28;20666;-79
2023/04/18 13:03:16;;;;;;;8.65;6.07;;;;;;;;;;4973927;28;20191;-79
2023/04/18 13:05:42;;;;;;;11.13;6.50;;;;;;;;;;4984998;28;20203;-80
2023/04/18 13:08:07;;;;;;;8.15;6.53;;;;;;;;;;4977264;28;20200;-79
2023/04/18 13:10:32;;;;;;;9.88;7.05;;;;;;;;;;4975189;28;20204;-81
2023/04/18 13:12:57;;;;;;;8.90;6.10;;;;;;;;;;4977956;28;20238;-80
2023/04/18 13:15:23;;;;;;;7.35;6.18;;;;;;;;;;4977400;28;20176;-80
2023/04/18 13:17:48;;;;;;;9.57;6.47;;;;;;;;;;4977891;28;20222;-80
2023/04/18 13:20:14;;;;;;;8.23;6.40;;;;;;;;;;4992858;28;20177;-80
2023/04/18 13:22:40;;;;;;;7.03;6.03;;;;;;;;;;4992501;28;20286;-80
2023/04/18 13:25:06;;;;;;;14.48;6.65;;;;;;;;;;4975978;28;20654;-81
2023/04/18 13:27:32;;;;;;;7.80;6.13;;;;;;;;;;4984134;28;20537;-80
2023/04/18 13:29:57;;;;;;;8.45;6.30;;;;;;;;;;4976483;28;20211;-80
2023/04/18 13:32:22;;;;;;;8.68;6.40;;;;;;;;;;4979415;28;20699;-80
2023/04/18 13:34:48;;;;;;;8.63;6.22;;;;;;;;;;4978149;28;20267;-79
2023/04/18 13:37:13;;;;;;;7.93;6.28;;;;;;;;;;4979252;28;20179;-80
2023/04/18 13:39:39;;;;;;;10.73;7.18;;;;;;;;;;4977514;28;20196;-79
2023/04/18 13:42:06;;;;;;;10.05;7.28;;;;;;;;;;4977722;28;20203;-80
2023/04/18 13:44:31;;;;;;;9.18;6.68;;;;;;;;;;4991679;28;20191;-79
2023/04/18 13:46:57;;;;;;;12.80;7.00;;;;;;;;;;4979321;28;20180;-79
2023/04/18 13:49:22;;;;;;;10.00;7.30;;;;;;;;;;4974966;28;20184;-79
2023/04/18 13:51:49;;;;;;;8.57;6.50;;;;;;;;;;4975197;28;20235;-79
2023/04/18 13:54:15;;;;;;;10.00;6.10;;;;;;;;;;4977037;28;20212;-79
2023/04/18 13:56:40;;;;;;;9.40;7.05;;;;;;;;;;4976404;28;20199;-79
2023/04/18 13:59:06;;;;;;;9.93;7.90;;;;;;;;;;4980883;28;20188;-79
2023/04/18 14:01:31;;;;;;;8.43;6.95;;;;;;;;;;4985428;28;20200;-80
2023/04/18 14:03:56;;;;;;;11.02;7.30;;;;;;;;;;4976660;28;20191;-79
2023/04/18 14:06:21;;;;;;;11.68;7.70;;;;;;;;;;4975397;28;20666;-79
2023/04/18 14:08:47;;;;;;;9.57;7.22;;;;;;;;;;4975363;28;20721;-79
2023/04/18 14:11:13;;;;;;;11.15;8.10;;;;;;;;;;4977411;28;20231;-80
2023/04/18 14:13:38;;;;;;;10.30;8.02;;;;;;;;;;4977840;28;20231;-80
2023/04/18 14:16:05;;;;;;;11.77;7.93;;;;;;;;;;4976456;28;20180;-80
2023/04/18 14:18:30;;;;;;;11.40;8.50;;;;;;;;;;4976200;28;20176;-80
2023/04/18 14:20:55;;;;;;;11.35;7.82;;;;;;;;;;4976328;28;20168;-79
2023/04/18 14:23:21;;;;;;;12.23;8.85;;;;;;;;;;4976076;28;20187;-80
2023/04/18 14:25:46;;;;;;;11.68;8.32;;;;;;;;;;4990049;28;20250;-79